Time;durP1;ratioP1;P1;durP2;ratioP2;P2;SDS_P1;SDS_P2;PMS_P1;PMS_P2;Temp;Humidity;BMP_temperature;BMP_pressure;BME280_temperature;BME280_humidity;BME280_pressure;Samples;Min_cycle;Max_cycle;Signal;HPM_P1;HPM_P2
2021/12/25 00:00:11;;;;;;;2.00;1.30;;;;;;;-1.31;83.39;98995.91;87864;1284;99643;-61
2021/12/25 00:02:40;;;;;;;2.80;1.70;;;;;;;-1.39;83.26;99006.23;87862;1281;88085;-62
2021/12/25 00:04:50;;;;;;;3.40;1.60;;;;;;;-1.42;83.18;99007.09;87841;1278;93010;-61
2021/12/25 00:07:04;;;;;;;2.60;1.40;;;;;;;-1.44;83.16;99018.52;87861;1281;76027;-61
2021/12/25 00:09:17;;;;;;;3.00;1.50;;;;;;;-1.52;83.18;99025.70;87892;1281;81751;-61
2021/12/25 00:11:27;;;;;;;2.30;1.60;;;;;;;-1.53;83.28;99034.42;87853;1284;97672;-62
2021/12/25 00:13:43;;;;;;;3.30;1.70;;;;;;;-1.54;83.35;99039.67;87978;1282;88630;-68
2021/12/25 00:15:58;;;;;;;3.20;1.50;;;;;;;-1.50;83.34;99038.77;87869;1281;95560;-61
2021/12/25 00:18:08;;;;;;;2.70;1.50;;;;;;;-1.49;83.10;99045.17;87833;1282;79915;-61
2021/12/25 00:20:18;;;;;;;3.10;1.50;;;;;;;-1.53;83.05;99049.48;87881;1283;83470;-68
2021/12/25 00:22:30;;;;;;;3.30;1.70;;;;;;;-1.54;83.21;99059.47;87881;1284;99596;-68
2021/12/25 00:24:44;;;;;;;3.80;1.80;;;;;;;-1.53;83.18;99059.68;87860;1279;88783;-61
2021/12/25 00:27:03;;;;;;;4.90;1.90;;;;;;;-1.51;83.05;99064.45;87860;1281;94373;-61
2021/12/25 00:31:50;;;;;;;4.00;2.00;;;;;;;-1.57;83.01;99077.96;87936;1282;82487;-68
2021/12/25 00:34:02;;;;;;;3.60;1.90;;;;;;;-1.61;82.85;99081.82;87886;1282;97564;-61
2021/12/25 00:36:12;;;;;;;6.10;2.60;;;;;;;-1.68;82.89;99091.38;87868;1284;89129;-60
2021/12/25 00:38:25;;;;;;;6.00;2.40;;;;;;;-1.74;82.85;99090.66;87857;1281;95452;-60
2021/12/25 00:40:35;;;;;;;4.50;2.20;;;;;;;-1.77;82.82;99098.68;87891;1281;79162;-64
2021/12/25 00:42:49;;;;;;;5.30;2.10;;;;;;;-1.74;82.96;99107.25;87860;1282;83000;-62
2021/12/25 00:45:00;;;;;;;4.30;2.40;;;;;;;-1.73;83.14;99116.33;88013;1282;97590;-62
2021/12/25 00:47:13;;;;;;;5.10;2.60;;;;;;;-1.73;82.99;99122.48;87869;1281;87447;-68
2021/12/25 00:49:24;;;;;;;5.80;2.50;;;;;;;-1.68;83.02;99123.25;87836;1284;95482;-67
2021/12/25 00:51:37;;;;;;;4.90;2.20;;;;;;;-1.68;82.99;99129.25;87896;1281;79478;-70
2021/12/25 00:53:52;;;;;;;3.40;1.90;;;;;;;-1.63;82.87;99142.19;87717;1278;80436;-69
2021/12/25 00:56:02;;;;;;;5.30;2.60;;;;;;;-1.63;82.65;99139.92;87920;1281;97351;-74
2021/12/25 00:58:15;;;;;;;5.40;2.10;;;;;;;-1.72;82.62;99156.48;87869;1278;88102;-63
2021/12/25 01:00:25;;;;;;;4.10;2.00;;;;;;;-1.79;82.52;99158.35;87854;1282;95590;-66
2021/12/25 01:02:41;;;;;;;4.10;1.80;;;;;;;-1.87;82.52;99162.58;87843;1284;78956;-69
2021/12/25 01:04:50;;;;;;;4.80;2.20;;;;;;;-2.02;82.44;99168.73;87881;1284;82808;-73
2021/12/25 01:07:00;;;;;;;4.00;2.10;;;;;;;-2.13;82.41;99182.02;87895;1284;98522;-71
2021/12/25 01:09:21;;;;;;;5.60;2.20;;;;;;;-2.21;82.40;99188.52;87856;1282;90965;-69
2021/12/25 01:11:32;;;;;;;3.70;1.70;;;;;;;-2.32;82.53;99197.32;87772;1283;94538;-70
2021/12/25 01:13:48;;;;;;;8.90;2.20;;;;;;;-2.36;82.53;99204.39;87704;1284;78827;-71
2021/12/25 01:16:12;;;;;;;2.60;1.50;;;;;;;-2.45;82.32;99214.45;87782;1280;79570;-70
2021/12/25 01:21:28;;;;;;;3.20;1.70;;;;;;;-2.47;82.38;99225.38;87313;1287;87819;-68
2021/12/25 01:24:08;;;;;;;4.30;1.50;;;;;;;-2.56;82.04;99233.48;87309;1287;95666;-71
2021/12/25 01:31:22;;;;;;;4.00;1.40;;;;;;;-2.80;81.85;99252.21;87206;1291;99609;-70
2021/12/25 01:34:01;;;;;;;3.40;1.60;;;;;;;-2.89;81.92;99251.73;87770;1284;89364;-67
2021/12/25 01:39:02;;;;;;;3.10;1.30;;;;;;;-3.24;81.60;99267.37;87650;1284;77229;-70
2021/12/25 01:41:39;;;;;;;4.00;1.30;;;;;;;-3.35;81.56;99269.95;87802;1284;82412;-65
2021/12/25 01:48:48;;;;;;;3.70;1.30;;;;;;;-3.59;81.80;99293.98;87801;1284;95557;-62
2021/12/25 01:50:57;;;;;;;4.20;1.30;;;;;;;-3.66;81.59;99298.84;87689;1283;79688;-62
2021/12/25 01:53:09;;;;;;;3.30;1.60;;;;;;;-3.77;81.69;99301.65;87768;1281;79881;-63
2021/12/25 01:55:23;;;;;;;2.40;1.10;;;;;;;-3.81;81.57;99308.52;87828;1287;96596;-70
2021/12/25 01:57:33;;;;;;;4.20;1.60;;;;;;;-3.86;81.68;99309.06;87757;1279;86687;-70
2021/12/25 01:59:45;;;;;;;3.70;1.30;;;;;;;-3.85;81.70;99313.58;87754;1284;94938;-63
2021/12/25 02:01:55;;;;;;;5.50;1.80;;;;;;;-3.88;81.77;99321.56;87764;1284;78105;-62
2021/12/25 02:04:05;;;;;;;4.30;1.30;;;;;;;-3.94;81.66;99324.90;87758;1283;81057;-63
2021/12/25 02:06:17;;;;;;;2.80;1.30;;;;;;;-4.02;81.67;99325.86;87777;1283;97692;-61
2021/12/25 02:08:29;;;;;;;3.80;1.20;;;;;;;-4.07;81.67;99333.47;87800;1284;89296;-64
2021/12/25 02:10:39;;;;;;;3.90;1.20;;;;;;;-4.11;81.59;99339.30;87834;1283;94572;-64
2021/12/25 02:12:53;;;;;;;4.30;1.40;;;;;;;-4.17;81.61;99342.93;87764;1287;79704;-62
2021/12/25 02:15:08;;;;;;;3.60;1.50;;;;;;;-4.22;81.74;99349.27;87819;1280;81590;-70
2021/12/25 02:17:27;;;;;;;4.70;1.90;;;;;;;-4.26;81.61;99344.27;87764;1283;98516;-68
2021/12/25 02:19:51;;;;;;;4.30;1.60;;;;;;;-4.31;81.73;99350.90;87766;1284;88555;-63
2021/12/25 02:22:02;;;;;;;4.60;1.30;;;;;;;-4.40;81.58;99353.20;87756;1284;94346;-62
2021/12/25 02:24:15;;;;;;;5.80;1.80;;;;;;;-4.46;81.65;99362.30;87736;1281;78167;-64
2021/12/25 02:26:28;;;;;;;2.60;1.00;;;;;;;-4.54;81.50;99370.82;87778;1282;79770;-69
2021/12/25 02:28:41;;;;;;;3.50;0.90;;;;;;;-4.62;81.63;99378.52;87809;1282;98199;-69
2021/12/25 02:30:54;;;;;;;4.40;1.10;;;;;;;-4.68;81.62;99377.89;87806;1283;86753;-69
2021/12/25 02:33:06;;;;;;;4.20;1.70;;;;;;;-4.77;81.48;99390.23;87769;1284;95121;-69
2021/12/25 02:35:20;;;;;;;3.30;1.10;;;;;;;-4.82;81.21;99389.70;87789;1281;77891;-63
2021/12/25 02:37:29;;;;;;;2.30;1.20;;;;;;;-4.81;81.70;99392.44;87807;1284;81927;-63
2021/12/25 02:39:43;;;;;;;2.80;1.10;;;;;;;-4.74;81.68;99400.82;87786;1284;97050;-64
2021/12/25 02:41:53;;;;;;;2.70;1.30;;;;;;;-4.73;81.77;99407.14;87745;1284;87282;-64
2021/12/25 02:44:04;;;;;;;3.70;1.20;;;;;;;-4.77;81.61;99411.26;87777;1284;94838;-62
2021/12/25 02:46:19;;;;;;;2.40;1.10;;;;;;;-4.80;81.74;99419.22;87813;1281;77615;-63
2021/12/25 02:48:34;;;;;;;4.30;1.10;;;;;;;-4.86;81.84;99427.92;87792;1281;82263;-62
2021/12/25 02:50:44;;;;;;;5.20;1.10;;;;;;;-4.91;81.58;99429.73;87763;1278;97692;-63
2021/12/25 02:52:55;;;;;;;4.10;1.30;;;;;;;-4.99;81.80;99436.34;87781;1286;87908;-63
2021/12/25 02:55:05;;;;;;;3.20;1.00;;;;;;;-5.07;81.49;99437.61;87781;1283;95826;-63
2021/12/25 02:57:19;;;;;;;3.10;1.20;;;;;;;-5.16;81.64;99438.85;87792;1284;78049;-62
2021/12/25 02:59:30;;;;;;;;;;;;;;;-5.28;81.56;99441.64;87791;1285;81353;-68
2021/12/25 03:01:45;;;;;;;2.40;1.00;;;;;;;-5.33;81.70;99444.13;87764;1286;98466;-69
2021/12/25 03:03:54;;;;;;;5.00;1.50;;;;;;;-5.38;81.49;99449.06;87725;1285;89871;-70
2021/12/25 03:06:08;;;;;;;4.50;1.20;;;;;;;-5.49;81.83;99450.55;87789;1284;93864;-62
2021/12/25 03:08:25;;;;;;;4.90;1.50;;;;;;;-5.57;81.58;99455.36;87805;1284;81076;-62
2021/12/25 03:10:37;;;;;;;4.50;1.00;;;;;;;-5.63;81.64;99452.66;87772;1284;82791;-71
2021/12/25 03:12:53;;;;;;;3.30;1.50;;;;;;;-5.65;81.55;99454.55;87787;1284;98615;-71
2021/12/25 03:15:14;;;;;;;6.00;1.60;;;;;;;-5.63;81.78;99457.90;87740;1284;88290;-69
2021/12/25 03:17:25;;;;;;;3.80;1.50;;;;;;;-5.63;81.82;99457.41;87741;1286;94975;-70
2021/12/25 03:19:35;;;;;;;5.40;2.40;;;;;;;-5.61;81.77;99464.07;87796;1284;79187;-71
2021/12/25 03:21:44;;;;;;;4.10;1.60;;;;;;;-5.60;81.85;99463.12;87781;1284;80862;-70
2021/12/25 03:23:53;;;;;;;4.20;1.60;;;;;;;-5.59;82.05;99467.48;87735;1287;98194;-71
2021/12/25 03:26:05;;;;;;;2.60;1.10;;;;;;;-5.61;81.74;99475.33;87754;1284;89123;-72
2021/12/25 03:28:16;;;;;;;2.80;1.30;;;;;;;-5.62;81.79;99482.27;87756;1284;94573;-71
2021/12/25 03:30:28;;;;;;;5.50;1.80;;;;;;;-5.67;81.75;99485.71;87751;1283;79092;-63
2021/12/25 03:32:38;;;;;;;3.40;1.50;;;;;;;-5.67;81.77;99489.63;87804;1285;82274;-64
2021/12/25 03:34:48;;;;;;;4.30;1.60;;;;;;;-5.76;81.78;99497.46;87797;1278;98869;-71
2021/12/25 03:36:57;;;;;;;4.80;1.50;;;;;;;-5.83;81.87;99501.30;87784;1283;86770;-68
2021/12/25 03:39:10;;;;;;;4.70;1.70;;;;;;;-5.97;81.75;99505.33;87764;1287;93384;-69
2021/12/25 03:41:21;;;;;;;3.70;1.50;;;;;;;-6.05;81.70;99505.69;87767;1284;79821;-65
2021/12/25 03:43:30;;;;;;;4.70;1.70;;;;;;;-6.11;81.53;99508.72;87821;1284;82568;-64
2021/12/25 03:45:40;;;;;;;4.30;1.80;;;;;;;-6.19;81.56;99516.84;87794;1281;98528;-65
2021/12/25 03:47:51;;;;;;;4.90;1.90;;;;;;;-6.28;81.86;99518.67;87821;1287;86550;-63
2021/12/25 03:57:42;;;;;;;4.00;1.70;;;;;;;-6.39;81.74;99530.29;87764;1287;97235;-71
2021/12/25 04:00:00;;;;;;;8.30;1.90;;;;;;;-6.40;82.04;99537.25;87791;1287;89117;-61
2021/12/25 04:02:17;;;;;;;6.00;2.30;;;;;;;-6.40;81.99;99540.35;87753;1284;95627;-62
2021/12/25 04:04:33;;;;;;;4.90;1.60;;;;;;;-6.39;81.93;99547.13;87768;1283;77701;-62
2021/12/25 04:06:48;;;;;;;3.90;1.90;;;;;;;-6.38;81.85;99547.62;87763;1286;83324;-62
2021/12/25 04:08:57;;;;;;;3.90;1.50;;;;;;;-6.43;81.67;99552.98;87750;1286;97421;-62
2021/12/25 04:11:12;;;;;;;4.80;2.40;;;;;;;-6.48;81.84;99555.65;87779;1284;89009;-61
2021/12/25 04:13:25;;;;;;;4.90;1.50;;;;;;;-6.53;81.64;99559.33;87750;1282;92896;-63
2021/12/25 04:15:35;;;;;;;4.60;1.70;;;;;;;-6.56;81.46;99563.36;87798;1284;80224;-62
2021/12/25 04:17:44;;;;;;;5.30;1.60;;;;;;;-6.64;81.59;99575.45;87779;1287;80728;-62
2021/12/25 04:19:54;;;;;;;4.60;1.70;;;;;;;-6.72;81.39;99576.83;87786;1287;98832;-69
2021/12/25 04:22:07;;;;;;;3.90;1.40;;;;;;;-6.80;81.63;99580.88;87736;1284;86720;-68
2021/12/25 04:24:16;;;;;;;8.40;1.60;;;;;;;-6.89;81.79;99583.59;87744;1284;93172;-62
2021/12/25 04:26:28;;;;;;;5.80;1.40;;;;;;;-6.93;81.53;99584.58;87744;1286;79971;-60
2021/12/25 04:28:44;;;;;;;3.30;1.90;;;;;;;-6.97;81.71;99589.52;87740;1288;82166;-62
2021/12/25 04:31:21;;;;;;;5.70;1.70;;;;;;;-7.00;81.67;99595.84;87777;1287;98582;-69
2021/12/25 05:03:22;;;;;;;4.00;1.50;;;;;;;-7.38;81.92;99652.54;87714;1287;81724;-62
2021/12/25 05:05:33;;;;;;;4.20;1.80;;;;;;;-7.41;82.15;99657.95;87736;1284;81315;-69
2021/12/25 05:07:43;;;;;;;6.50;1.90;;;;;;;-7.41;81.80;99659.39;87738;1287;98412;-69
2021/12/25 05:09:57;;;;;;;3.80;1.70;;;;;;;-7.44;82.07;99657.11;87800;1287;86959;-70
2021/12/25 05:12:05;;;;;;;;;;;;;;;-7.43;82.02;99660.38;87790;1283;95819;-70
2021/12/25 05:14:17;;;;;;;5.50;2.20;;;;;;;-7.46;82.22;99664.55;87753;1284;81747;-68
2021/12/25 05:16:27;;;;;;;6.20;2.00;;;;;;;-7.46;82.12;99666.48;87751;1286;81298;-72
2021/12/25 05:18:39;;;;;;;6.40;2.00;;;;;;;-7.41;82.10;99669.17;87781;1287;99369;-68
2021/12/25 05:20:49;;;;;;;4.50;1.80;;;;;;;-7.41;82.04;99674.42;87789;1284;88999;-62
2021/12/25 05:22:59;;;;;;;6.00;2.00;;;;;;;-7.43;81.96;99675.23;87763;1283;95362;-62
2021/12/25 05:25:12;;;;;;;4.50;2.50;;;;;;;-7.45;82.27;99676.19;87731;1284;79096;-68
2021/12/25 05:27:20;;;;;;;;;;;;;;;-7.42;81.87;99677.10;87776;1287;79603;-69
2021/12/25 05:29:34;;;;;;;5.50;2.40;;;;;;;-7.42;82.18;99677.80;87761;1283;97567;-62
2021/12/25 05:31:41;;;;;;;;;;;;;;;-7.42;82.07;99681.45;87780;1288;88165;-61
2021/12/25 05:33:54;;;;;;;7.20;2.30;;;;;;;-7.46;82.07;99685.73;87741;1286;94361;-61
2021/12/25 05:36:04;;;;;;;6.10;2.70;;;;;;;-7.43;82.15;99683.11;87802;1283;78437;-69
2021/12/25 05:38:15;;;;;;;5.20;2.30;;;;;;;-7.39;81.80;99690.54;87813;1276;82521;-69
2021/12/25 05:40:27;;;;;;;5.60;2.80;;;;;;;-7.38;81.72;99689.23;87818;1284;98819;-69
2021/12/25 05:42:37;;;;;;;8.50;3.40;;;;;;;-7.38;81.70;99691.00;87791;1287;87561;-69
2021/12/25 05:44:47;;;;;;;7.90;2.90;;;;;;;-7.39;81.53;99689.32;87807;1283;93826;-67
2021/12/25 05:46:56;;;;;;;8.00;2.90;;;;;;;-7.36;81.49;99686.83;87856;1283;80156;-68
2021/12/25 05:49:09;;;;;;;6.20;2.90;;;;;;;-7.38;81.23;99692.00;87793;1287;82806;-68
2021/12/25 05:51:19;;;;;;;4.90;2.40;;;;;;;-7.38;81.14;99694.83;87820;1288;98121;-62
2021/12/25 05:53:29;;;;;;;12.20;4.90;;;;;;;-7.42;81.32;99702.21;87823;1282;88062;-62
2021/12/25 05:55:38;;;;;;;6.80;2.80;;;;;;;-7.46;81.21;99703.86;87832;1282;94223;-67
2021/12/25 05:57:47;;;;;;;5.60;3.00;;;;;;;-7.48;81.23;99709.10;87773;1284;78793;-68
2021/12/25 05:59:57;;;;;;;6.30;2.70;;;;;;;-7.52;81.37;99717.08;87814;1284;81196;-62
2021/12/25 06:02:06;;;;;;;8.80;3.50;;;;;;;-7.53;81.24;99718.86;87789;1283;95863;-63
2021/12/25 06:04:15;;;;;;;12.30;5.20;;;;;;;-7.54;80.84;99722.59;87838;1283;87711;-67
2021/12/25 06:06:25;;;;;;;8.80;3.60;;;;;;;-7.60;81.16;99717.55;87807;1284;94698;-71
2021/12/25 06:08:34;;;;;;;10.70;3.50;;;;;;;-7.63;81.21;99721.41;87800;1280;77910;-70
2021/12/25 06:10:47;;;;;;;8.40;3.10;;;;;;;-7.69;81.16;99718.59;87812;1286;81359;-70
2021/12/25 06:13:00;;;;;;;7.60;3.10;;;;;;;-7.73;81.19;99723.73;87827;1286;96844;-69
2021/12/25 06:15:14;;;;;;;7.80;2.60;;;;;;;-7.75;81.19;99727.19;87801;1288;85725;-69
2021/12/25 06:17:24;;;;;;;7.00;2.80;;;;;;;-7.80;81.38;99736.56;87811;1281;95501;-69
2021/12/25 06:19:33;;;;;;;7.80;3.50;;;;;;;-7.84;80.96;99735.41;87812;1287;79903;-63
2021/12/25 06:21:44;;;;;;;6.40;2.90;;;;;;;-7.89;80.80;99736.20;87767;1287;80454;-62
2021/12/25 06:23:56;;;;;;;10.00;4.40;;;;;;;-7.91;80.95;99745.59;87815;1284;98741;-61
2021/12/25 06:26:06;;;;;;;7.50;3.20;;;;;;;-7.96;81.33;99743.81;87813;1284;86784;-61
2021/12/25 06:28:15;;;;;;;7.90;3.30;;;;;;;-8.02;81.00;99747.46;87796;1284;94511;-65
2021/12/25 06:30:24;;;;;;;7.10;3.10;;;;;;;-8.08;80.95;99749.20;87818;1283;81814;-67
2021/12/25 06:32:34;;;;;;;9.00;3.20;;;;;;;-8.11;81.09;99750.63;87837;1281;80691;-67
2021/12/25 06:34:44;;;;;;;7.30;2.90;;;;;;;-8.12;81.18;99754.54;87792;1284;99086;-68
2021/12/25 06:36:53;;;;;;;6.20;3.00;;;;;;;-8.13;81.35;99756.17;87824;1283;88438;-67
2021/12/25 06:39:03;;;;;;;7.20;2.90;;;;;;;-8.20;81.30;99761.98;87786;1282;96080;-68
2021/12/25 06:41:14;;;;;;;7.10;3.20;;;;;;;-8.21;81.16;99768.00;87720;1285;79462;-61
2021/12/25 06:43:23;;;;;;;9.70;3.10;;;;;;;-8.25;81.43;99773.28;87813;1282;84257;-61
2021/12/25 06:45:33;;;;;;;11.00;3.40;;;;;;;-8.26;81.34;99777.70;87808;1283;98953;-64
2021/12/25 06:47:46;;;;;;;8.60;3.20;;;;;;;-8.24;80.92;99778.98;87809;1287;88366;-63
2021/12/25 06:49:56;;;;;;;9.50;3.40;;;;;;;-8.27;81.07;99782.28;87797;1288;95045;-67
2021/12/25 06:52:07;;;;;;;8.10;3.30;;;;;;;-8.31;81.19;99781.50;87785;1286;80370;-68
2021/12/25 06:54:17;;;;;;;8.80;3.00;;;;;;;-8.26;81.15;99783.98;87804;1282;81488;-66
2021/12/25 06:56:27;;;;;;;7.80;3.30;;;;;;;-8.22;81.20;99787.41;87795;1283;96749;-69
2021/12/25 06:58:36;;;;;;;7.10;3.10;;;;;;;-8.26;81.02;99785.55;87736;1290;88563;-69
2021/12/25 07:00:46;;;;;;;9.60;4.00;;;;;;;-8.28;81.18;99787.10;87817;1284;94981;-70
2021/12/25 07:02:57;;;;;;;11.60;4.10;;;;;;;-8.25;81.02;99788.11;87808;1287;80321;-68
2021/12/25 07:05:08;;;;;;;11.70;5.30;;;;;;;-8.15;81.00;99789.63;87869;1282;79734;-68
2021/12/25 07:07:18;;;;;;;12.40;3.50;;;;;;;-8.16;80.92;99792.31;87546;1289;337133;-70
2021/12/25 07:09:32;;;;;;;9.90;3.60;;;;;;;-8.14;80.99;99794.60;87827;1287;88556;-68
2021/12/25 07:11:44;;;;;;;12.00;3.90;;;;;;;-8.13;81.03;99798.09;87841;1282;94552;-69
2021/12/25 07:14:01;;;;;;;14.60;4.00;;;;;;;-8.13;80.89;99797.22;87832;1287;80165;-71
2021/12/25 07:16:14;;;;;;;11.60;3.60;;;;;;;-8.06;80.89;99798.55;87821;1286;81398;-62
2021/12/25 07:18:24;;;;;;;10.90;3.90;;;;;;;-8.01;80.53;99799.50;87800;1287;98654;-62
2021/12/25 07:20:36;;;;;;;8.80;3.90;;;;;;;-8.03;80.57;99802.19;87887;1288;88536;-68
2021/12/25 07:22:53;;;;;;;7.90;3.70;;;;;;;-8.04;80.64;99804.33;87774;1289;95751;-69
2021/12/25 07:25:04;;;;;;;9.50;4.00;;;;;;;-8.06;80.63;99810.06;87928;1282;80242;-70
2021/12/25 07:27:14;;;;;;;9.40;3.90;;;;;;;-8.08;80.79;99816.31;87890;1286;80899;-68
2021/12/25 07:29:27;;;;;;;9.30;3.90;;;;;;;-8.12;80.88;99813.08;87815;1283;97595;-68
2021/12/25 07:31:36;;;;;;;9.30;4.00;;;;;;;-8.03;80.69;99814.63;87807;1283;87499;-69
2021/12/25 07:33:49;;;;;;;8.30;3.70;;;;;;;-7.96;80.51;99819.96;87821;1283;93837;-68
2021/12/25 07:35:59;;;;;;;11.00;4.40;;;;;;;-7.87;80.54;99818.05;87813;1278;79094;-62
2021/12/25 07:38:08;;;;;;;8.00;3.80;;;;;;;-7.76;80.39;99818.98;87814;1282;81771;-62
2021/12/25 07:40:21;;;;;;;10.90;4.10;;;;;;;-7.68;80.44;99822.73;87826;1287;98632;-69
2021/12/25 07:42:30;;;;;;;8.60;3.90;;;;;;;-7.72;80.44;99823.50;87807;1282;88994;-69
2021/12/25 07:44:40;;;;;;;10.10;4.30;;;;;;;-7.56;80.34;99826.77;87831;1282;95536;-62
2021/12/25 07:46:50;;;;;;;11.20;4.20;;;;;;;-7.36;80.39;99833.88;87817;1286;78482;-62
2021/12/25 07:49:04;;;;;;;12.90;5.00;;;;;;;-7.25;80.13;99836.41;87831;1286;80569;-62
2021/12/25 07:51:14;;;;;;;12.40;5.10;;;;;;;-6.94;79.92;99837.34;87826;1284;99227;-61
2021/12/25 07:53:25;;;;;;;13.10;4.90;;;;;;;-6.58;79.36;99834.67;87819;1287;88175;-62
2021/12/25 07:55:34;;;;;;;13.10;5.20;;;;;;;-6.34;79.26;99836.50;87844;1286;95014;-69
2021/12/25 07:57:43;;;;;;;13.20;5.50;;;;;;;-6.18;79.12;99831.76;87818;1288;79995;-69
2021/12/25 07:59:53;;;;;;;11.80;4.70;;;;;;;-6.12;79.24;99833.50;87834;1287;82281;-61
2021/12/25 08:02:03;;;;;;;11.80;5.10;;;;;;;-6.15;78.65;99835.48;87834;1282;97216;-61
2021/12/25 08:04:13;;;;;;;13.80;5.90;;;;;;;-5.86;78.81;99833.72;87800;1290;88490;-67
2021/12/25 08:06:26;;;;;;;12.00;5.20;;;;;;;-5.70;78.00;99833.52;87783;1286;93996;-72
2021/12/25 08:08:35;;;;;;;11.10;4.80;;;;;;;-5.55;77.40;99836.92;87816;1288;80308;-71
2021/12/25 08:10:50;;;;;;;14.00;5.20;;;;;;;-5.62;77.43;99847.32;87873;1282;81777;-72
2021/12/25 08:13:04;;;;;;;10.10;4.90;;;;;;;-5.69;77.11;99851.70;87760;1286;99262;-70
2021/12/25 08:15:20;;;;;;;9.00;4.40;;;;;;;-5.67;77.04;99858.23;87819;1283;88267;-63
2021/12/25 08:17:30;;;;;;;9.40;4.40;;;;;;;-5.65;76.95;99855.08;87810;1284;95826;-63
2021/12/25 08:19:40;;;;;;;11.40;5.90;;;;;;;-5.72;77.34;99856.26;87817;1284;79188;-72
2021/12/25 08:21:51;;;;;;;11.90;5.10;;;;;;;-5.79;76.75;99853.21;87788;1290;82437;-72
2021/12/25 08:24:01;;;;;;;12.10;5.00;;;;;;;-5.82;76.84;99862.16;87803;1282;99729;-72
2021/12/25 08:26:11;;;;;;;11.40;4.60;;;;;;;-5.80;76.81;99862.44;87858;1283;87520;-72
2021/12/25 08:28:21;;;;;;;13.30;5.20;;;;;;;-5.82;77.09;99869.75;87770;1284;95845;-73
2021/12/25 08:30:31;;;;;;;12.60;6.30;;;;;;;-5.81;77.29;99871.41;87827;1285;78888;-71
2021/12/25 08:32:44;;;;;;;11.40;5.80;;;;;;;-5.56;77.54;99873.77;87847;1287;80956;-70
2021/12/25 08:34:53;;;;;;;11.40;5.80;;;;;;;-4.88;77.24;99871.79;87789;1286;96063;-71
2021/12/25 08:37:03;;;;;;;17.70;7.40;;;;;;;-3.98;77.06;99871.83;87817;1283;88932;-71
2021/12/25 08:39:14;;;;;;;14.30;5.80;;;;;;;-3.24;75.80;99869.48;87818;1282;95893;-69
2021/12/25 08:41:27;;;;;;;15.60;7.30;;;;;;;-2.98;75.37;99874.20;87785;1283;77653;-64
2021/12/25 08:43:46;;;;;;;14.00;8.00;;;;;;;-3.11;74.68;99876.25;87812;1286;82489;-64
2021/12/25 08:46:12;;;;;;;15.80;6.50;;;;;;;-3.38;74.44;99883.46;87858;1284;98681;-71
2021/12/25 08:48:26;;;;;;;15.00;7.10;;;;;;;-3.88;74.48;99891.22;87804;1287;87401;-69
2021/12/25 08:50:38;;;;;;;17.10;7.00;;;;;;;-4.19;74.60;99894.66;87789;1283;95120;-64
2021/12/25 08:52:46;;;;;;;19.60;7.30;;;;;;;-4.34;74.39;99892.37;87803;1287;76858;-63
2021/12/25 08:54:57;;;;;;;16.80;7.10;;;;;;;-4.44;74.82;99893.45;87820;1282;81908;-71
2021/12/25 08:57:09;;;;;;;15.00;6.60;;;;;;;-4.09;75.31;99892.58;87828;1287;98808;-71
2021/12/25 08:59:23;;;;;;;14.10;6.70;;;;;;;-3.34;75.38;99890.54;87752;1286;86051;-65
2021/12/25 09:01:37;;;;;;;12.50;6.30;;;;;;;-2.59;75.03;99890.36;87822;1288;94361;-65
2021/12/25 09:03:47;;;;;;;13.10;6.50;;;;;;;-1.82;74.19;99889.38;87797;1287;77742;-65
2021/12/25 09:05:57;;;;;;;12.00;6.60;;;;;;;-1.33;73.75;99891.59;87787;1287;82287;-65
2021/12/25 09:08:10;;;;;;;14.30;7.00;;;;;;;-1.04;73.35;99889.52;87826;1286;98448;-64
2021/12/25 09:10:20;;;;;;;11.80;6.80;;;;;;;-0.72;72.32;99894.38;87845;1286;89314;-62
2021/12/25 09:12:35;;;;;;;15.10;7.70;;;;;;;-0.66;72.06;99894.27;87754;1283;94682;-64
2021/12/25 09:14:45;;;;;;;14.00;7.80;;;;;;;-0.72;71.84;99891.45;87775;1287;77856;-73
2021/12/25 09:16:55;;;;;;;12.50;7.70;;;;;;;-0.78;71.53;99891.23;87811;1283;83250;-73
2021/12/25 09:19:05;;;;;;;13.80;7.10;;;;;;;-0.82;71.06;99892.11;87810;1288;98181;-71
2021/12/25 09:21:15;;;;;;;13.50;7.70;;;;;;;-1.03;71.07;99892.15;87819;1287;89045;-62
2021/12/25 09:23:25;;;;;;;14.90;8.10;;;;;;;-0.93;70.55;99892.48;87813;1282;94661;-63
2021/12/25 09:25:35;;;;;;;18.00;8.10;;;;;;;-0.60;70.50;99887.89;87834;1286;77800;-72
2021/12/25 09:27:49;;;;;;;14.90;7.60;;;;;;;-0.21;70.53;99887.79;87849;1276;81975;-72
2021/12/25 09:29:59;;;;;;;17.50;7.80;;;;;;;0.29;69.76;99886.39;87808;1288;99783;-63
2021/12/25 09:32:10;;;;;;;13.00;7.50;;;;;;;0.62;69.00;99892.45;87793;1282;86942;-63
2021/12/25 09:34:19;;;;;;;12.90;7.60;;;;;;;0.94;68.96;99887.90;87819;1282;95463;-72
2021/12/25 09:36:34;;;;;;;16.10;8.00;;;;;;;1.11;68.72;99893.17;87798;1286;77073;-73
2021/12/25 09:38:47;;;;;;;13.10;8.10;;;;;;;1.27;68.61;99900.02;87827;1283;80004;-75
2021/12/25 09:40:58;;;;;;;15.80;8.00;;;;;;;1.32;68.45;99904.05;87807;1286;98998;-73
2021/12/25 09:43:10;;;;;;;15.20;8.60;;;;;;;1.62;67.78;99904.53;87833;1283;87810;-73
2021/12/25 09:45:22;;;;;;;15.10;8.50;;;;;;;1.97;65.13;99910.23;87810;1284;92464;-73
2021/12/25 09:47:32;;;;;;;15.70;9.10;;;;;;;2.08;65.14;99912.20;87795;1282;78615;-73
2021/12/25 09:49:42;;;;;;;17.30;9.90;;;;;;;2.08;64.05;99904.91;87834;1279;80501;-64
2021/12/25 09:51:52;;;;;;;17.60;9.60;;;;;;;2.15;65.01;99910.05;87750;1288;98748;-64
2021/12/25 09:54:08;;;;;;;18.20;9.90;;;;;;;2.11;65.41;99907.95;87801;1286;87737;-63
2021/12/25 09:56:17;;;;;;;16.50;9.90;;;;;;;2.24;65.40;99909.74;87787;1283;95775;-64
2021/12/25 09:58:27;;;;;;;16.80;9.50;;;;;;;2.25;65.45;99905.51;87790;1280;78566;-74
2021/12/25 10:00:42;;;;;;;15.00;9.20;;;;;;;2.47;65.42;99900.18;87750;1285;81688;-74
2021/12/25 10:02:53;;;;;;;14.00;8.30;;;;;;;2.45;65.55;99896.80;87790;1287;99126;-75
2021/12/25 10:05:05;;;;;;;16.00;8.00;;;;;;;2.44;65.49;99901.36;87841;1286;87876;-64
2021/12/25 10:07:30;;;;;;;12.70;8.00;;;;;;;2.53;62.51;99896.23;87782;1283;94519;-65
2021/12/25 10:09:39;;;;;;;14.80;9.10;;;;;;;2.64;63.82;99897.92;87808;1282;77784;-75
2021/12/25 10:12:09;;;;;;;12.50;8.30;;;;;;;2.78;63.54;99896.04;87821;1282;83016;-75
2021/12/25 10:14:21;;;;;;;13.30;8.60;;;;;;;3.08;62.58;99895.61;87700;1289;97409;-64
2021/12/25 10:16:33;;;;;;;14.60;8.80;;;;;;;3.29;62.11;99898.98;87802;1282;86848;-64
2021/12/25 10:18:48;;;;;;;15.30;9.00;;;;;;;3.36;62.42;99897.78;87789;1286;94977;-63
2021/12/25 10:21:19;;;;;;;16.30;9.20;;;;;;;3.33;62.27;99898.82;87854;1287;77914;-65
2021/12/25 10:23:35;;;;;;;14.60;9.50;;;;;;;3.19;61.35;99905.77;87813;1282;82066;-65
2021/12/25 10:25:52;;;;;;;14.50;9.10;;;;;;;2.79;61.26;99915.97;87823;1284;98247;-76
2021/12/25 10:28:13;;;;;;;17.30;9.70;;;;;;;2.08;60.99;99923.42;87814;1284;88836;-75
2021/12/25 10:30:26;;;;;;;16.50;10.00;;;;;;;1.30;61.62;99923.03;87599;1289;96039;-64
2021/12/25 10:32:41;;;;;;;20.20;10.40;;;;;;;0.69;61.69;99924.75;87805;1284;78255;-63
2021/12/25 10:34:55;;;;;;;17.30;9.90;;;;;;;0.17;61.57;99929.58;87840;1283;82989;-66
2021/12/25 10:37:16;;;;;;;17.10;10.10;;;;;;;-0.21;62.57;99925.75;87834;1286;97620;-63
2021/12/25 10:39:31;;;;;;;18.50;9.70;;;;;;;-0.54;62.50;99922.59;87909;1282;89249;-60
2021/12/25 10:41:52;;;;;;;19.50;9.90;;;;;;;-0.87;63.05;99924.69;87800;1284;93202;-60
2021/12/25 10:44:17;;;;;;;17.80;9.80;;;;;;;-1.22;63.08;99925.66;87556;1284;77495;-60
2021/12/25 10:46:26;;;;;;;15.50;9.80;;;;;;;-1.61;63.93;99932.44;87840;1287;82680;-66
2021/12/25 10:48:36;;;;;;;18.10;10.00;;;;;;;-1.81;64.44;99932.30;87780;1284;98524;-65
2021/12/25 10:50:49;;;;;;;17.10;9.20;;;;;;;-2.04;64.81;99933.78;87850;1284;88662;-60
2021/12/25 10:53:00;;;;;;;23.60;9.90;;;;;;;-2.27;65.18;99933.73;87822;1284;93935;-60
2021/12/25 10:55:24;;;;;;;19.30;10.00;;;;;;;-2.44;65.43;99939.27;87835;1284;79906;-72
2021/12/25 10:57:41;;;;;;;21.30;10.40;;;;;;;-2.63;65.62;99940.56;87816;1286;81529;-72
2021/12/25 11:00:00;;;;;;;20.40;10.40;;;;;;;-2.75;66.15;99936.10;87863;1282;98859;-65
2021/12/25 11:02:11;;;;;;;15.70;9.70;;;;;;;-2.84;66.46;99938.33;87819;1281;86823;-72
2021/12/25 11:04:36;;;;;;;20.10;10.70;;;;;;;-2.96;67.00;99933.79;87843;1284;96020;-63
2021/12/25 11:06:50;;;;;;;20.30;9.80;;;;;;;-3.05;67.31;99941.30;87817;1283;80818;-63
2021/12/25 11:09:09;;;;;;;19.30;9.30;;;;;;;-3.16;67.51;99942.16;87818;1282;82140;-72
2021/12/25 11:11:22;;;;;;;19.80;11.50;;;;;;;-3.21;67.88;99945.38;87825;1283;99213;-68
2021/12/25 11:13:35;;;;;;;19.40;11.00;;;;;;;-3.26;67.78;99946.42;87830;1280;87362;-70
2021/12/25 11:15:45;;;;;;;19.20;10.30;;;;;;;-3.38;68.03;99947.02;87841;1287;92981;-70
2021/12/25 11:18:06;;;;;;;21.60;10.30;;;;;;;-3.47;68.35;99940.79;87826;1284;78772;-68